Time;durP1;ratioP1;P1;durP2;ratioP2;P2;SDS_P1;SDS_P2;PMS_P1;PMS_P2;Temp;Humidity;BMP_temperature;BMP_pressure;BME280_temperature;BME280_humidity;BME280_pressure;Samples;Min_cycle;Max_cycle;Signal;HPM_P1;HPM_P2
2023/04/20 00:02:03;;;;;;;12.00;4.38;;;8.50;57.40;;;;;;5054259;28;20193;-80
2023/04/20 00:04:29;;;;;;;8.32;4.10;;;8.50;57.80;;;;;;5052109;28;20199;-82
2023/04/20 00:06:57;;;;;;;6.03;3.97;;;8.50;58.40;;;;;;5054455;28;20264;-82
2023/04/20 00:09:23;;;;;;;6.55;4.65;;;8.40;58.20;;;;;;5054618;28;20185;-82
2023/04/20 00:11:48;;;;;;;6.03;4.13;;;8.40;58.20;;;;;;5047863;28;20185;-79
2023/04/20 00:14:15;;;;;;;6.90;3.77;;;8.40;59.20;;;;;;5052438;28;20224;-83
2023/04/20 00:16:40;;;;;;;10.90;4.63;;;8.40;59.10;;;;;;5055683;28;20194;-83
2023/04/20 00:19:06;;;;;;;6.10;4.60;;;8.40;59.20;;;;;;5053593;28;20190;-82
2023/04/20 00:21:32;;;;;;;6.00;4.43;;;8.40;59.40;;;;;;5054684;28;20531;-78
2023/04/20 00:23:58;;;;;;;5.78;4.15;;;8.40;59.80;;;;;;5052600;28;20637;-82
2023/04/20 00:26:23;;;;;;;7.10;4.80;;;8.40;61.30;;;;;;5059374;28;20196;-83
2023/04/20 00:28:50;;;;;;;5.53;4.00;;;8.40;61.00;;;;;;5053556;28;20230;-83
2023/04/20 00:31:16;;;;;;;7.35;4.28;;;8.30;61.20;;;;;;5055267;28;20752;-82
2023/04/20 00:33:42;;;;;;;6.03;4.80;;;8.30;61.50;;;;;;5052775;28;20232;-83
2023/04/20 00:36:08;;;;;;;6.47;4.50;;;8.30;62.00;;;;;;5055385;28;20662;-81
2023/04/20 00:38:33;;;;;;;7.37;4.43;;;8.30;62.60;;;;;;5055306;28;20184;-82
2023/04/20 00:40:59;;;;;;;7.37;4.77;;;8.30;61.50;;;;;;5048919;28;20446;-82
2023/04/20 00:43:25;;;;;;;8.77;4.87;;;8.30;62.50;;;;;;5052599;28;20198;-82
2023/04/20 00:45:53;;;;;;;7.57;4.73;;;8.30;62.60;;;;;;5054142;28;20675;-83
2023/04/20 00:48:19;;;;;;;7.90;4.70;;;8.30;63.90;;;;;;5051949;28;20185;-82
2023/04/20 00:50:46;;;;;;;6.13;4.70;;;8.30;64.30;;;;;;5055628;28;20262;-82
2023/04/20 00:53:12;;;;;;;5.50;4.60;;;8.30;62.80;;;;;;5054180;28;20204;-80
2023/04/20 00:55:38;;;;;;;8.15;4.35;;;8.30;63.60;;;;;;5059693;28;20184;-82
2023/04/20 00:58:05;;;;;;;20.35;4.80;;;8.30;63.90;;;;;;5049400;28;20529;-82
2023/04/20 01:00:31;;;;;;;6.18;4.32;;;8.30;64.20;;;;;;5048197;28;20178;-83
2023/04/20 01:02:57;;;;;;;6.60;5.25;;;8.20;63.60;;;;;;5044023;28;20206;-82
2023/04/20 01:05:23;;;;;;;6.00;4.00;;;8.20;63.90;;;;;;5054921;28;20189;-83
2023/04/20 01:07:49;;;;;;;5.87;4.30;;;8.20;63.70;;;;;;5044566;28;20185;-82
2023/04/20 01:10:14;;;;;;;5.63;4.60;;;8.10;64.40;;;;;;5046858;28;20198;-82
2023/04/20 01:12:41;;;;;;;6.73;4.13;;;8.10;63.60;;;;;;5049507;28;20213;-80
2023/04/20 01:15:07;;;;;;;14.05;4.38;;;8.10;63.80;;;;;;5051738;28;20240;-81
2023/04/20 01:17:33;;;;;;;8.57;4.82;;;8.10;64.20;;;;;;5052317;28;20181;-81
2023/04/20 01:19:59;;;;;;;4.80;3.80;;;8.10;65.00;;;;;;5053869;28;20189;-82
2023/04/20 01:22:25;;;;;;;5.93;4.10;;;8.10;64.80;;;;;;5052721;28;20201;-82
2023/04/20 01:24:51;;;;;;;6.15;4.82;;;8.10;65.00;;;;;;5057937;28;20808;-82
2023/04/20 01:27:17;;;;;;;6.57;4.57;;;8.10;65.50;;;;;;5052759;28;20185;-81
2023/04/20 01:29:44;;;;;;;5.70;3.70;;;8.10;66.10;;;;;;5055323;28;20871;-83
2023/04/20 01:32:10;;;;;;;5.75;3.95;;;8.20;66.30;;;;;;5049547;28;20428;-83
2023/04/20 01:34:36;;;;;;;6.20;4.30;;;8.20;66.80;;;;;;5048462;28;20182;-82
2023/04/20 01:37:06;;;;;;;14.97;4.67;;;8.30;67.30;;;;;;5050625;28;20235;-80
2023/04/20 01:39:34;;;;;;;6.82;4.53;;;8.30;68.00;;;;;;5054095;28;20197;-82
2023/04/20 01:42:00;;;;;;;6.78;4.20;;;8.30;68.60;;;;;;5046156;28;20190;-81
2023/04/20 01:44:26;;;;;;;9.50;4.88;;;8.30;69.50;;;;;;5053060;28;20197;-83
2023/04/20 01:46:51;;;;;;;7.83;3.87;;;8.30;69.90;;;;;;5051527;28;20204;-82
2023/04/20 01:49:17;;;;;;;7.13;3.97;;;8.20;68.90;;;;;;5051941;28;20190;-82
2023/04/20 01:51:42;;;;;;;7.63;4.40;;;8.20;69.00;;;;;;5052314;28;20182;-82
2023/04/20 01:54:08;;;;;;;7.17;4.87;;;8.10;69.30;;;;;;5052556;28;20709;-83
2023/04/20 01:56:33;;;;;;;5.77;4.00;;;8.20;69.30;;;;;;5053230;28;20193;-82
2023/04/20 01:58:59;;;;;;;4.40;3.63;;;8.10;68.10;;;;;;5047335;28;20178;-82
2023/04/20 02:01:24;;;;;;;7.53;4.23;;;8.10;68.60;;;;;;5054691;28;20189;-82
2023/04/20 02:03:50;;;;;;;7.10;4.57;;;8.10;68.50;;;;;;5041596;28;20297;-82
2023/04/20 02:06:15;;;;;;;6.13;3.97;;;8.10;69.60;;;;;;5051151;28;20242;-83
2023/04/20 02:08:41;;;;;;;6.57;4.43;;;8.10;69.90;;;;;;5051472;28;20281;-82
2023/04/20 02:11:07;;;;;;;8.27;4.60;;;8.10;68.80;;;;;;5052690;28;20286;-83
2023/04/20 02:13:32;;;;;;;5.93;4.30;;;8.10;68.80;;;;;;5053624;28;20693;-82
2023/04/20 02:15:58;;;;;;;10.13;4.70;;;8.10;69.30;;;;;;5055863;28;20182;-82
2023/04/20 02:18:23;;;;;;;6.30;4.53;;;8.10;69.30;;;;;;5062987;28;20177;-82
2023/04/20 02:20:49;;;;;;;6.33;4.40;;;8.10;70.10;;;;;;5077020;28;20194;-83
2023/04/20 02:23:14;;;;;;;8.87;4.73;;;8.10;70.20;;;;;;5053957;28;20201;-82
2023/04/20 02:25:40;;;;;;;6.63;4.43;;;8.10;71.00;;;;;;5054250;28;20182;-82
2023/04/20 02:28:06;;;;;;;8.63;3.77;;;8.10;71.60;;;;;;5048719;28;20651;-82
2023/04/20 02:30:31;;;;;;;5.00;4.10;;;8.10;70.40;;;;;;5053341;28;20578;-82
2023/04/20 02:32:57;;;;;;;5.50;3.60;;;8.10;71.40;;;;;;5050593;28;20210;-82
2023/04/20 02:35:23;;;;;;;7.73;4.07;;;8.20;71.90;;;;;;5053747;28;20189;-82
2023/04/20 02:37:48;;;;;;;4.20;3.80;;;8.20;72.70;;;;;;5049128;28;20974;-82
2023/04/20 02:40:14;;;;;;;7.40;3.83;;;8.20;72.30;;;;;;5050515;28;20273;-82
2023/04/20 02:42:40;;;;;;;5.70;4.03;;;8.20;72.80;;;;;;5052456;28;20208;-82
2023/04/20 02:45:06;;;;;;;8.20;4.50;;;8.20;74.50;;;;;;5050216;28;20205;-82
2023/04/20 02:47:32;;;;;;;4.97;3.90;;;8.30;90.80;;;;;;5052664;28;20197;-83
2023/04/20 02:49:57;;;;;;;4.90;3.53;;;8.30;73.40;;;;;;5051860;28;20201;-81
2023/04/20 02:52:23;;;;;;;5.90;3.80;;;8.30;74.70;;;;;;5052270;28;20968;-82
2023/04/20 02:54:49;;;;;;;5.57;3.80;;;8.40;74.50;;;;;;5059388;28;20235;-83
2023/04/20 02:57:14;;;;;;;6.37;3.80;;;8.40;74.40;;;;;;5048175;28;20232;-82
2023/04/20 02:59:40;;;;;;;6.93;3.50;;;8.40;74.80;;;;;;5052989;28;20185;-82
2023/04/20 03:02:05;;;;;;;6.20;3.53;;;8.40;75.00;;;;;;5044124;28;20643;-83
2023/04/20 03:04:31;;;;;;;5.30;3.43;;;8.50;77.00;;;;;;5046701;28;20201;-81
2023/04/20 03:06:57;;;;;;;4.20;3.70;;;8.50;76.10;;;;;;5040823;28;20620;-78
2023/04/20 03:09:23;;;;;;;7.35;3.40;;;8.50;76.30;;;;;;5046494;28;20260;-82
2023/04/20 03:11:49;;;;;;;5.30;3.67;;;8.50;75.80;;;;;;5050211;28;20192;-82
2023/04/20 03:14:15;;;;;;;6.05;3.70;;;8.50;76.60;;;;;;5052827;28;20637;-82
2023/04/20 03:16:41;;;;;;;4.93;3.47;;;8.50;77.70;;;;;;5046595;28;20205;-82
2023/04/20 03:19:06;;;;;;;5.20;3.70;;;8.60;78.10;;;;;;5052847;28;20194;-82
2023/04/20 03:21:32;;;;;;;7.63;3.60;;;8.60;78.30;;;;;;5050290;28;20243;-82
2023/04/20 03:23:58;;;;;;;6.60;3.40;;;8.60;79.10;;;;;;5049113;28;20213;-82
2023/04/20 03:26:24;;;;;;;5.60;3.65;;;8.60;79.90;;;;;;5051180;28;20182;-82
2023/04/20 03:28:50;;;;;;;4.90;3.30;;;8.60;79.40;;;;;;5050621;28;20610;-82
2023/04/20 03:31:16;;;;;;;9.67;3.57;;;8.60;79.40;;;;;;5049005;28;20209;-82
2023/04/20 03:33:41;;;;;;;4.70;3.13;;;8.60;79.90;;;;;;5041466;28;20201;-81
2023/04/20 03:36:08;;;;;;;3.93;3.40;;;8.60;80.20;;;;;;5043049;28;20705;-82
2023/04/20 03:38:33;;;;;;;5.00;4.47;;;8.60;79.70;;;;;;5037508;28;20240;-83
2023/04/20 03:40:59;;;;;;;3.80;3.20;;;8.60;80.40;;;;;;5048969;28;20197;-82
2023/04/20 03:43:24;;;;;;;7.00;3.17;;;8.60;80.90;;;;;;5046367;28;20236;-82
2023/04/20 03:45:50;;;;;;;6.20;3.70;;;8.60;82.00;;;;;;5051188;28;20173;-82
2023/04/20 03:48:16;;;;;;;6.17;3.53;;;8.60;81.40;;;;;;5052160;28;20200;-82
2023/04/20 03:50:41;;;;;;;4.03;3.10;;;8.60;82.40;;;;;;5052250;28;20789;-81
2023/04/20 03:53:07;;;;;;;4.13;3.20;;;8.60;83.00;;;;;;5051076;28;20654;-82
2023/04/20 03:55:32;;;;;;;4.57;3.47;;;8.60;83.30;;;;;;5060253;28;20181;-83
2023/04/20 03:57:58;;;;;;;4.90;3.70;;;8.60;83.60;;;;;;5049639;28;20184;-81
2023/04/20 04:00:23;;;;;;;8.83;3.30;;;8.60;84.10;;;;;;5043926;28;20209;-82
2023/04/20 04:02:49;;;;;;;4.53;3.20;;;8.50;84.70;;;;;;5051598;28;20217;-82
2023/04/20 04:05:15;;;;;;;4.30;3.47;;;8.50;86.10;;;;;;5041495;28;20194;-79
2023/04/20 04:07:40;;;;;;;5.43;3.40;;;8.50;86.00;;;;;;5039857;28;20206;-82
2023/04/20 04:10:06;;;;;;;6.90;3.17;;;8.50;87.00;;;;;;5037984;28;20225;-82
2023/04/20 04:12:32;;;;;;;4.00;3.58;;;8.50;90.10;;;;;;5039719;28;20264;-81
2023/04/20 04:14:57;;;;;;;5.97;3.60;;;8.40;90.20;;;;;;5047723;28;20212;-81
2023/04/20 04:17:23;;;;;;;6.60;3.43;;;8.40;90.30;;;;;;5043550;28;20186;-81
2023/04/20 04:19:48;;;;;;;4.10;3.03;;;8.30;91.10;;;;;;5049634;28;20194;-82
2023/04/20 04:22:14;;;;;;;5.20;3.17;;;8.30;91.90;;;;;;5049046;28;20187;-82
2023/04/20 04:24:40;;;;;;;5.20;4.03;;;8.20;92.80;;;;;;5056521;28;20251;-82
2023/04/20 04:27:06;;;;;;;5.40;3.13;;;8.10;94.10;;;;;;5049379;28;20185;-81
2023/04/20 04:29:34;;;;;;;4.60;3.40;;;8.20;94.50;;;;;;5041225;28;20205;-80
2023/04/20 04:32:04;;;;;;;6.45;3.72;;;8.10;96.10;;;;;;5049642;28;20443;-79
2023/04/20 04:34:30;;;;;;;4.70;3.67;;;8.10;96.50;;;;;;5050440;28;20177;-82
2023/04/20 04:36:56;;;;;;;4.93;3.70;;;8.20;97.30;;;;;;5053550;28;20720;-82
2023/04/20 04:39:21;;;;;;;4.53;3.80;;;8.20;98.00;;;;;;5055472;28;20193;-82
2023/04/20 04:41:47;;;;;;;6.97;4.10;;;8.20;98.90;;;;;;5053730;28;20459;-82
2023/04/20 04:44:14;;;;;;;4.97;3.77;;;8.30;99.60;;;;;;5057415;28;20228;-82
2023/04/20 04:46:40;;;;;;;6.70;4.25;;;8.30;99.90;;;;;;5059034;28;20710;-82
2023/04/20 04:49:06;;;;;;;5.75;3.90;;;8.30;99.90;;;;;;5046392;28;20193;-82
2023/04/20 04:51:32;;;;;;;6.30;3.90;;;8.40;99.90;;;;;;5055229;28;20201;-82
2023/04/20 04:53:58;;;;;;;7.30;4.17;;;8.40;99.90;;;;;;5048842;28;20235;-82
2023/04/20 04:56:23;;;;;;;8.60;4.30;;;8.40;99.90;;;;;;5059627;28;20185;-82
2023/04/20 04:58:49;;;;;;;6.57;3.93;;;8.40;99.90;;;;;;5053449;28;20186;-79
2023/04/20 05:01:14;;;;;;;5.50;4.33;;;8.40;99.90;;;;;;5052314;28;20193;-81
2023/04/20 05:03:46;;;;;;;5.10;3.93;;;8.40;99.90;;;;;;5047871;28;20217;-82
2023/04/20 05:06:12;;;;;;;7.40;4.07;;;8.40;99.90;;;;;;5054056;28;20182;-81
2023/04/20 05:08:37;;;;;;;4.67;4.13;;;8.40;99.90;;;;;;5051504;28;20203;-80
2023/04/20 05:11:03;;;;;;;5.90;4.50;;;8.40;99.90;;;;;;5045735;28;20217;-80
2023/04/20 05:13:28;;;;;;;5.80;3.60;;;8.40;99.90;;;;;;5050776;28;20284;-81
2023/04/20 05:15:54;;;;;;;8.87;5.20;;;8.40;99.90;;;;;;5051548;28;20189;-82
2023/04/20 05:18:20;;;;;;;9.77;4.20;;;8.40;99.90;;;;;;5050459;28;20623;-81
2023/04/20 05:20:46;;;;;;;9.80;5.35;;;8.50;99.90;;;;;;5045614;28;20200;-80
2023/04/20 05:23:11;;;;;;;6.23;4.00;;;8.50;99.90;;;;;;5050440;28;20206;-82
2023/04/20 05:25:37;;;;;;;6.27;4.33;;;8.50;99.90;;;;;;5054736;28;20189;-80
2023/04/20 05:28:02;;;;;;;6.00;4.10;;;8.50;99.90;;;;;;5053424;28;20190;-81
2023/04/20 05:30:28;;;;;;;8.70;4.00;;;8.50;99.90;;;;;;5048876;28;20332;-82
2023/04/20 05:32:53;;;;;;;6.20;4.10;;;8.50;99.90;;;;;;5048982;28;20194;-79
2023/04/20 05:35:20;;;;;;;6.07;4.17;;;8.60;99.90;;;;;;5046933;28;20209;-81
2023/04/20 05:37:46;;;;;;;7.50;4.00;;;8.60;99.90;;;;;;5052424;28;20182;-81
2023/04/20 05:40:11;;;;;;;6.78;4.75;;;8.60;99.90;;;;;;5049025;28;20232;-80
2023/04/20 05:42:37;;;;;;;10.77;4.37;;;8.60;99.90;;;;;;5037119;28;20296;-82
2023/04/20 05:45:03;;;;;;;7.97;4.30;;;8.60;99.90;;;;;;5044446;28;20189;-82
2023/04/20 05:47:29;;;;;;;8.57;5.13;;;8.60;99.90;;;;;;5050387;28;20702;-82
2023/04/20 05:49:55;;;;;;;5.83;4.60;;;8.70;99.90;;;;;;5046263;28;20209;-82
2023/04/20 05:52:20;;;;;;;8.07;4.80;;;8.60;99.90;;;;;;5056304;28;20186;-80
2023/04/20 05:54:46;;;;;;;7.10;4.20;;;8.60;99.90;;;;;;5061292;28;20245;-80
2023/04/20 05:57:12;;;;;;;10.73;6.00;;;8.70;99.90;;;;;;5060145;28;20650;-80
2023/04/20 05:59:37;;;;;;;6.40;4.03;;;8.70;99.90;;;;;;5045533;28;20448;-81
2023/04/20 06:02:05;;;;;;;10.63;5.40;;;8.70;99.90;;;;;;5048405;28;20178;-80
2023/04/20 06:04:30;;;;;;;10.48;4.53;;;8.70;99.90;;;;;;5053338;28;20215;-81
2023/04/20 06:06:56;;;;;;;9.90;5.00;;;8.70;99.90;;;;;;5048683;28;20627;-80
2023/04/20 06:09:22;;;;;;;6.90;4.93;;;8.80;99.90;;;;;;5051234;28;20182;-80
2023/04/20 06:11:47;;;;;;;7.77;4.90;;;9.00;99.90;;;;;;5043453;28;20687;-81
2023/04/20 06:14:13;;;;;;;7.90;4.83;;;9.00;99.90;;;;;;5041359;28;20198;-80
2023/04/20 06:16:39;;;;;;;7.60;4.47;;;9.10;99.90;;;;;;5046170;28;20669;-82
2023/04/20 06:19:05;;;;;;;8.23;4.88;;;9.20;99.90;;;;;;5044436;28;21203;-80
2023/04/20 06:21:32;;;;;;;5.63;4.40;;;9.30;99.90;;;;;;5045643;28;20178;-80
2023/04/20 06:23:58;;;;;;;7.73;6.07;;;9.40;99.90;;;;;;5046117;28;20216;-81
2023/04/20 06:26:23;;;;;;;5.70;4.30;;;9.40;99.90;;;;;;5051059;28;20530;-81
2023/04/20 06:28:51;;;;;;;8.90;4.43;;;9.40;99.90;;;;;;5045994;28;20181;-81
2023/04/20 06:31:17;;;;;;;7.90;4.13;;;9.50;99.90;;;;;;5050642;28;20201;-81
2023/04/20 06:33:43;;;;;;;8.37;4.70;;;9.40;99.90;;;;;;5042353;28;20534;-80
2023/04/20 06:36:08;;;;;;;11.00;4.37;;;9.50;99.90;;;;;;5052427;28;21009;-79
2023/04/20 06:38:34;;;;;;;6.90;4.80;;;9.50;99.90;;;;;;5042372;28;20189;-80
2023/04/20 06:41:01;;;;;;;6.43;4.40;;;9.50;99.90;;;;;;5037699;28;20246;-82
2023/04/20 06:43:27;;;;;;;5.63;4.50;;;9.50;99.90;;;;;;5048079;28;20459;-80
2023/04/20 06:45:52;;;;;;;6.97;4.40;;;9.60;99.90;;;;;;5047654;28;20806;-81
2023/04/20 06:48:18;;;;;;;17.10;5.43;;;9.60;99.90;;;;;;5044769;28;20689;-81
2023/04/20 06:50:47;;;;;;;8.30;5.20;;;9.60;99.90;;;;;;5044752;28;20225;-80
2023/04/20 06:53:13;;;;;;;7.07;5.00;;;9.70;99.90;;;;;;5043657;28;20561;-80
2023/04/20 06:55:38;;;;;;;7.43;4.90;;;9.80;99.90;;;;;;5052191;28;20436;-80
2023/04/20 06:58:04;;;;;;;11.10;5.53;;;10.00;99.90;;;;;;5047765;28;20609;-81
2023/04/20 07:00:30;;;;;;;16.83;5.90;;;10.10;99.90;;;;;;5046919;28;20182;-81
2023/04/20 07:02:55;;;;;;;33.47;6.47;;;10.10;99.90;;;;;;5045808;28;20209;-81
2023/04/20 07:05:21;;;;;;;9.47;5.20;;;10.10;99.90;;;;;;5052107;28;20567;-79
2023/04/20 07:07:47;;;;;;;10.10;5.90;;;10.20;99.90;;;;;;5051461;28;20186;-81
2023/04/20 07:10:14;;;;;;;8.17;4.90;;;10.20;99.90;;;;;;5046286;28;20492;-81
2023/04/20 07:12:41;;;;;;;12.80;6.60;;;10.20;99.90;;;;;;5043975;28;20222;-81
2023/04/20 07:15:07;;;;;;;7.40;5.50;;;10.10;99.90;;;;;;5053197;28;20452;-81
2023/04/20 07:17:33;;;;;;;10.50;5.97;;;10.10;99.90;;;;;;5051905;28;20455;-81
2023/04/20 07:20:07;;;;;;;11.87;7.03;;;10.00;99.90;;;;;;5059311;28;20443;-81
2023/04/20 07:22:37;;;;;;;7.97;6.70;;;9.90;99.90;;;;;;5059726;28;20451;-81
2023/04/20 07:25:04;;;;;;;9.40;6.63;;;9.90;99.90;;;;;;5053762;28;20526;-82
2023/04/20 07:27:34;;;;;;;9.50;5.93;;;9.80;99.90;;;;;;5051199;28;20444;-80
2023/04/20 07:29:59;;;;;;;7.93;6.03;;;9.80;99.90;;;;;;5048962;28;20483;-79
2023/04/20 07:32:25;;;;;;;7.23;6.20;;;9.70;99.90;;;;;;5045686;28;20977;-81
2023/04/20 07:34:50;;;;;;;7.00;5.40;;;9.70;99.90;;;;;;5049708;28;20319;-80
2023/04/20 07:37:16;;;;;;;10.20;6.67;;;9.60;99.90;;;;;;5043081;28;20193;-80
2023/04/20 07:39:41;;;;;;;7.97;5.93;;;9.50;99.90;;;;;;5051591;28;20677;-79
2023/04/20 07:42:07;;;;;;;8.93;6.10;;;9.50;99.90;;;;;;5044119;28;20194;-80
2023/04/20 07:44:34;;;;;;;7.83;6.40;;;9.50;99.90;;;;;;5040308;28;20185;-80
2023/04/20 07:47:00;;;;;;;8.17;6.93;;;9.50;99.90;;;;;;5050068;28;20208;-81
2023/04/20 07:49:26;;;;;;;7.80;6.10;;;9.50;99.90;;;;;;5051412;28;20428;-80
2023/04/20 07:51:51;;;;;;;13.47;6.70;;;9.50;99.90;;;;;;5043783;28;20509;-81
2023/04/20 07:54:17;;;;;;;9.83;6.83;;;9.50;99.90;;;;;;5048837;28;20232;-80
2023/04/20 07:56:42;;;;;;;8.50;7.23;;;9.50;99.90;;;;;;5042543;28;20217;-80
2023/04/20 07:59:08;;;;;;;13.43;7.13;;;9.50;99.90;;;;;;5049228;28;20185;-79
2023/04/20 08:01:34;;;;;;;7.13;6.43;;;9.60;99.90;;;;;;5046082;28;20186;-81
2023/04/20 08:04:00;;;;;;;7.23;6.60;;;9.70;99.90;;;;;;5048226;28;20214;-81
2023/04/20 08:06:26;;;;;;;7.30;6.13;;;9.70;99.90;;;;;;5044410;28;21152;-80
2023/04/20 08:08:51;;;;;;;8.07;6.77;;;9.80;99.90;;;;;;5053888;28;20659;-79
2023/04/20 08:11:17;;;;;;;9.40;6.43;;;9.90;99.90;;;;;;5054041;28;20248;-80
2023/04/20 08:13:43;;;;;;;10.97;7.70;;;10.00;99.90;;;;;;5051657;28;20903;-79
2023/04/20 08:16:08;;;;;;;9.90;7.63;;;10.10;99.90;;;;;;5057162;28;20196;-80
2023/04/20 08:18:34;;;;;;;9.03;6.73;;;10.00;99.90;;;;;;5060464;28;20189;-80
2023/04/20 08:21:00;;;;;;;8.40;7.20;;;9.90;99.90;;;;;;5055451;28;20461;-79
2023/04/20 08:23:26;;;;;;;6.90;6.20;;;9.90;99.90;;;;;;5057528;28;20216;-81
2023/04/20 08:25:55;;;;;;;7.97;7.10;;;10.00;99.90;;;;;;5050781;28;20213;-79
2023/04/20 08:28:22;;;;;;;8.57;7.67;;;9.90;99.90;;;;;;5061456;28;20483;-80
2023/04/20 08:30:48;;;;;;;7.30;6.60;;;10.00;99.90;;;;;;5041433;28;20452;-80
2023/04/20 08:33:14;;;;;;;9.37;7.17;;;10.00;99.90;;;;;;5040028;28;20440;-81
2023/04/20 08:35:39;;;;;;;7.47;6.67;;;10.10;99.90;;;;;;5047821;28;20486;-80
2023/04/20 08:38:05;;;;;;;6.03;5.53;;;10.30;99.90;;;;;;5055355;28;20236;-80
2023/04/20 08:40:31;;;;;;;7.73;6.93;;;10.50;99.90;;;;;;5054164;28;20613;-80
2023/04/20 08:43:04;;;;;;;11.87;6.87;;;10.50;99.90;;;;;;5052905;28;20694;-80
2023/04/20 08:45:30;;;;;;;9.60;6.20;;;10.50;99.90;;;;;;5054020;28;20446;-81
2023/04/20 08:47:58;;;;;;;9.13;7.07;;;10.60;99.90;;;;;;5051633;28;20468;-80
2023/04/20 08:50:23;;;;;;;8.43;7.07;;;10.80;99.90;;;;;;5046785;28;20488;-79
2023/04/20 08:52:49;;;;;;;8.30;7.37;;;10.90;99.90;;;;;;5051246;28;20455;-79
2023/04/20 08:55:16;;;;;;;9.83;7.70;;;11.00;99.90;;;;;;5052398;28;20510;-79
2023/04/20 08:57:41;;;;;;;12.23;7.10;;;11.10;99.90;;;;;;5047826;28;20252;-80
2023/04/20 09:00:09;;;;;;;7.83;7.00;;;11.30;99.90;;;;;;5052968;28;20538;-80
2023/04/20 09:02:34;;;;;;;10.17;8.53;;;11.50;99.90;;;;;;5055384;28;20211;-81
2023/04/20 09:05:04;;;;;;;8.37;7.50;;;11.70;99.90;;;;;;5050505;28;20960;-77
2023/04/20 09:07:31;;;;;;;7.70;7.00;;;11.90;99.90;;;;;;5047850;28;20185;-80
2023/04/20 09:09:58;;;;;;;8.27;6.97;;;12.20;99.90;;;;;;5047259;28;20802;-79
2023/04/20 09:12:24;;;;;;;9.67;7.00;;;12.50;99.90;;;;;;5056442;28;20776;-80
2023/04/20 09:14:50;;;;;;;8.30;7.40;;;12.80;99.90;;;;;;5044137;28;20421;-81
2023/04/20 09:17:18;;;;;;;8.43;7.63;;;13.00;99.90;;;;;;5048639;28;20754;-79
2023/04/20 09:19:44;;;;;;;9.23;8.27;;;13.10;99.90;;;;;;5049303;28;20887;-79
2023/04/20 09:22:10;;;;;;;7.90;7.00;;;13.40;99.90;;;;;;5051953;28;20498;-79
2023/04/20 09:24:37;;;;;;;7.73;6.93;;;13.60;99.90;;;;;;5055270;28;20480;-80
2023/04/20 09:27:14;;;;;;;12.00;7.83;;;13.60;99.90;;;;;;5049289;28;20445;-79
2023/04/20 09:29:40;;;;;;;9.63;8.07;;;13.60;99.90;;;;;;5066596;28;20425;-79
2023/04/20 09:32:06;;;;;;;10.27;7.27;;;13.40;99.90;;;;;;5065254;28;20463;-79
2023/04/20 09:34:42;;;;;;;10.47;8.50;;;13.10;99.90;;;;;;5059690;28;20260;-80
2023/04/20 09:37:09;;;;;;;10.47;8.00;;;12.90;99.90;;;;;;5053749;28;20174;-80
2023/04/20 09:39:39;;;;;;;13.13;7.70;;;12.70;99.90;;;;;;5054083;28;20483;-80
2023/04/20 09:42:08;;;;;;;10.37;7.70;;;12.90;99.90;;;;;;5055587;28;20835;-79
2023/04/20 09:44:36;;;;;;;10.23;7.27;;;13.00;99.90;;;;;;5054983;28;20543;-81
2023/04/20 09:47:04;;;;;;;8.30;7.50;;;13.00;99.90;;;;;;5055323;28;20426;-81
2023/04/20 09:49:31;;;;;;;8.70;7.80;;;13.00;99.90;;;;;;5056078;28;20424;-80
2023/04/20 09:51:57;;;;;;;9.57;8.37;;;13.00;99.90;;;;;;5048336;28;20433;-80
2023/04/20 09:54:33;;;;;;;9.53;6.90;;;13.10;99.90;;;;;;5042420;28;20519;-80
2023/04/20 09:57:00;;;;;;;7.87;6.77;;;13.40;99.90;;;;;;5042232;28;20509;-80
2023/04/20 09:59:26;;;;;;;8.50;7.60;;;13.60;99.90;;;;;;5058155;28;20436;-80
2023/04/20 10:01:52;;;;;;;9.30;7.80;;;13.70;99.90;;;;;;5053200;28;20811;-79
2023/04/20 10:04:18;;;;;;;11.03;7.37;;;13.60;99.90;;;;;;5048217;28;20467;-80
2023/04/20 10:06:54;;;;;;;11.80;8.10;;;13.50;99.90;;;;;;5049251;28;20439;-79
2023/04/20 10:09:22;;;;;;;9.90;8.37;;;13.50;99.90;;;;;;5042332;28;20671;-80
2023/04/20 10:11:47;;;;;;;10.60;8.20;;;13.50;99.90;;;;;;5060921;28;20989;-81
2023/04/20 10:14:24;;;;;;;8.77;7.87;;;13.40;99.90;;;;;;5053471;28;20457;-81
2023/04/20 10:17:02;;;;;;;8.00;7.20;;;13.40;99.90;;;;;;5045998;28;20171;-80
2023/04/20 10:19:46;;;;;;;8.90;7.60;;;13.60;99.90;;;;;;5039736;28;20471;-81
2023/04/20 10:22:26;;;;;;;7.80;6.97;;;14.00;99.90;;;;;;5046209;28;20435;-81
2023/04/20 10:24:51;;;;;;;8.43;7.53;;;14.30;99.90;;;;;;5053120;28;20422;-81
2023/04/20 10:27:19;;;;;;;8.97;8.03;;;14.80;99.90;;;;;;5052982;28;20416;-81
2023/04/20 10:29:45;;;;;;;9.03;7.90;;;15.20;99.90;;;;;;5049211;28;20228;-81
2023/04/20 10:32:30;;;;;;;8.13;7.30;;;15.60;99.90;;;;;;5049050;28;20431;-82
2023/04/20 10:35:05;;;;;;;10.43;7.00;;;15.90;99.90;;;;;;5041152;28;20586;-81
2023/04/20 10:37:31;;;;;;;8.00;7.20;;;16.10;99.90;;;;;;5049766;28;20426;-78
2023/04/20 10:39:56;;;;;;;7.50;6.70;;;16.40;99.90;;;;;;5047559;28;20931;-79
2023/04/20 10:42:22;;;;;;;7.43;6.73;;;16.50;99.90;;;;;;5050727;28;20199;-79
2023/04/20 10:44:49;;;;;;;7.73;6.30;;;16.40;99.90;;;;;;5060943;28;20187;-79
2023/04/20 10:47:15;;;;;;;9.80;7.20;;;16.30;99.90;;;;;;5051512;28;20264;-80
2023/04/20 10:49:41;;;;;;;10.03;6.30;;;16.00;99.90;;;;;;5048815;28;20458;-80
2023/04/20 10:52:06;;;;;;;7.57;6.40;;;15.70;99.90;;;;;;5047521;28;20452;-79
2023/04/20 10:54:39;;;;;;;6.50;5.90;;;15.20;99.90;;;;;;5052944;28;20212;-79
2023/04/20 10:57:05;;;;;;;10.17;6.80;;;14.80;99.90;;;;;;5056780;28;20307;-79
2023/04/20 10:59:33;;;;;;;7.50;6.80;;;14.40;99.90;;;;;;5039105;28;20435;-79
2023/04/20 11:02:00;;;;;;;6.70;5.90;;;13.90;99.90;;;;;;5056068;28;20539;-81
2023/04/20 11:04:32;;;;;;;10.40;6.73;;;13.60;99.90;;;;;;5043818;28;20444;-79
2023/04/20 11:07:09;;;;;;;6.63;6.00;;;13.40;99.90;;;;;;5051917;28;20442;-81
2023/04/20 11:09:37;;;;;;;6.20;5.07;;;13.00;99.90;;;;;;5049753;28;20443;-79
2023/04/20 11:12:13;;;;;;;22.30;8.67;;;12.30;99.90;;;;;;5052782;28;20488;-79
2023/04/20 11:14:51;;;;;;;12.03;7.80;;;11.20;99.90;;;;;;5041281;28;20446;-80
2023/04/20 11:17:16;;;;;;;7.50;3.77;;;10.00;99.90;;;;;;5043633;28;20518;-82
2023/04/20 11:19:42;;;;;;;11.07;6.33;;;9.10;99.90;;;;;;5045081;28;20542;-80
2023/04/20 11:22:08;;;;;;;10.33;6.70;;;8.60;1.00;;;;;;5045771;28;20655;-79
2023/04/20 11:24:34;;;;;;;11.57;6.70;;;8.80;99.90;;;;;;5064397;28;20177;-80
2023/04/20 11:27:01;;;;;;;9.23;6.93;;;9.40;1.00;;;;;;5050809;28;20529;-80
2023/04/20 11:29:38;;;;;;;14.50;8.10;;;10.00;1.00;;;;;;5046924;28;20439;-80
2023/04/20 11:32:07;;;;;;;12.33;7.37;;;10.70;99.90;;;;;;5043373;28;20445;-81
2023/04/20 11:34:33;;;;;;;20.33;9.10;;;11.90;99.90;;;;;;5059584;28;20445;-82
2023/04/20 11:37:06;;;;;;;17.43;8.87;;;13.20;1.00;;;;;;5043286;28;20450;-82
2023/04/20 11:39:32;;;;;;;14.30;8.00;;;14.60;1.00;;;;;;5048916;28;20427;-82
2023/04/20 11:41:58;;;;;;;19.03;9.20;;;15.80;99.90;;;;;;5050880;28;20972;-81
2023/04/20 11:44:25;;;;;;;13.90;7.47;;;17.00;99.90;;;;;;5046115;28;20231;-82
2023/04/20 11:46:53;;;;;;;14.10;8.37;;;18.00;99.90;;;;;;5038015;28;20407;-82
2023/04/20 11:49:20;;;;;;;9.27;6.37;;;18.80;99.90;;;;;;5054372;28;20431;-81
2023/04/20 11:51:46;;;;;;;9.63;7.63;;;18.90;99.90;;;;;;5049260;28;20565;-80
2023/04/20 11:54:12;;;;;;;9.87;8.00;;;17.90;99.90;;;;;;5043303;28;20967;-81
2023/04/20 11:56:38;;;;;;;10.43;7.87;;;16.60;99.90;;;;;;5049634;28;20842;-81
2023/04/20 11:59:04;;;;;;;13.77;9.10;;;15.40;99.90;;;;;;5050614;28;20459;-81
2023/04/20 12:01:30;;;;;;;12.30;8.67;;;14.60;99.90;;;;;;5045549;28;20450;-80
2023/04/20 12:03:55;;;;;;;12.10;7.97;;;14.00;99.90;;;;;;5045735;28;20794;-80
2023/04/20 12:06:21;;;;;;;13.10;8.90;;;13.50;99.90;;;;;;5052613;28;20472;-78
2023/04/20 12:08:47;;;;;;;10.17;8.40;;;13.20;99.90;;;;;;5055518;28;20233;-80
2023/04/20 12:11:15;;;;;;;10.43;8.03;;;13.20;99.90;;;;;;5051001;28;20553;-79
2023/04/20 12:13:41;;;;;;;10.10;7.87;;;12.90;99.90;;;;;;5053119;28;20248;-80
2023/04/20 12:16:07;;;;;;;8.97;8.07;;;12.70;99.90;;;;;;5057527;28;20444;-81
2023/04/20 12:18:32;;;;;;;11.00;9.10;;;12.50;1.00;;;;;;5047300;28;20526;-79
2023/04/20 12:20:59;;;;;;;9.30;8.40;;;12.30;99.90;;;;;;5056190;28;20202;-80
2023/04/20 12:23:25;;;;;;;8.60;7.63;;;12.00;1.00;;;;;;5058667;28;20209;-80
2023/04/20 12:25:51;;;;;;;9.47;7.10;;;11.90;1.00;;;;;;5051484;28;20444;-80
2023/04/20 12:28:16;;;;;;;7.93;6.70;;;12.10;1.00;;;;;;5052576;28;20413;-80
2023/04/20 12:30:42;;;;;;;7.20;6.50;;;12.50;1.00;;;;;;5055642;28;20228;-80
2023/04/20 12:33:07;;;;;;;8.63;6.90;;;12.90;99.90;;;;;;5052117;28;20207;-80
2023/04/20 12:35:33;;;;;;;7.17;5.77;;;14.00;99.90;;;;;;5056018;28;20186;-80
2023/04/20 12:37:58;;;;;;;5.70;5.20;;;15.30;99.90;;;;;;5039733;28;20188;-80
2023/04/20 12:40:24;;;;;;;5.43;4.77;;;16.50;99.90;;;;;;5045745;28;20254;-80
2023/04/20 12:42:50;;;;;;;5.20;4.30;;;17.20;99.90;;;;;;5054576;28;20204;-80
2023/04/20 12:45:15;;;;;;;4.47;4.00;;;17.00;99.90;;;;;;5040899;28;20197;-81
2023/04/20 12:47:41;;;;;;;4.73;4.30;;;17.00;99.90;;;;;;5039191;28;20198;-80